Time;durP1;ratioP1;P1;durP2;ratioP2;P2;SDS_P1;SDS_P2;PMS_P1;PMS_P2;Temp;Humidity;BMP_temperature;BMP_pressure;BME280_temperature;BME280_humidity;BME280_pressure;Samples;Min_cycle;Max_cycle;Signal;HPM_P1;HPM_P2
2022/05/10 00:02:06;;;;;;;12.82;7.00;;;16.10;99.90;;;;;;5083421;28;20066;-76
2022/05/10 00:04:32;;;;;;;9.97;7.20;;;16.10;99.90;;;;;;5088818;28;20035;-75
2022/05/10 00:06:58;;;;;;;9.88;7.15;;;15.90;99.90;;;;;;5085429;28;20032;-75
2022/05/10 00:09:29;;;;;;;15.18;8.48;;;16.00;99.90;;;;;;5081247;28;20093;-75
2022/05/10 00:11:56;;;;;;;13.85;8.98;;;15.90;99.90;;;;;;5091036;28;20076;-75
2022/05/10 00:14:22;;;;;;;13.10;9.15;;;15.90;99.90;;;;;;5099705;28;20093;-73
2022/05/10 00:16:51;;;;;;;16.00;9.77;;;15.90;99.90;;;;;;5088950;28;21668;-76
2022/05/10 00:19:18;;;;;;;15.55;10.38;;;15.90;99.90;;;;;;5097910;28;20036;-76
2022/05/10 00:21:44;;;;;;;13.90;9.77;;;15.90;99.90;;;;;;5088924;28;20532;-77
2022/05/10 00:24:11;;;;;;;14.50;9.88;;;15.90;99.90;;;;;;5087423;28;20060;-76
2022/05/10 00:26:37;;;;;;;14.57;11.00;;;15.90;99.90;;;;;;5085244;28;20035;-79
2022/05/10 00:29:03;;;;;;;14.35;10.93;;;16.00;99.90;;;;;;5084280;28;20044;-76
2022/05/10 00:31:29;;;;;;;19.60;11.98;;;16.00;99.90;;;;;;5081765;28;20036;-76
2022/05/10 00:33:57;;;;;;;15.77;10.83;;;16.00;99.90;;;;;;5090976;28;20096;-76
2022/05/10 00:36:24;;;;;;;17.38;11.23;;;16.00;99.90;;;;;;5084151;28;20475;-76
2022/05/10 00:38:50;;;;;;;20.63;11.90;;;16.10;99.90;;;;;;5090834;28;20047;-77
2022/05/10 00:41:34;;;;;;;15.73;12.07;;;16.00;99.90;;;;;;5083354;28;20302;-76
2022/05/10 00:44:08;;;;;;;15.98;12.45;;;16.10;99.90;;;;;;5087827;28;20039;-78
2022/05/10 00:46:42;;;;;;;16.35;13.10;;;16.10;99.90;;;;;;5102452;28;20040;-78
2022/05/10 00:49:40;;;;;;;21.40;12.95;;;16.10;99.90;;;;;;5081253;28;20044;-76
2022/05/10 00:52:28;;;;;;;20.95;14.70;;;16.20;99.90;;;;;;5081349;28;20057;-76
2022/05/10 00:54:58;;;;;;;18.83;14.52;;;16.20;99.90;;;;;;5089739;28;20044;-77
2022/05/10 00:57:32;;;;;;;22.45;15.38;;;16.20;99.90;;;;;;5084878;28;20073;-78
2022/05/10 01:00:03;;;;;;;20.55;15.40;;;16.20;99.90;;;;;;5073600;28;20039;-76
2022/05/10 01:02:46;;;;;;;20.88;15.10;;;16.30;99.90;;;;;;5086640;28;20040;-75
2022/05/10 01:05:24;;;;;;;17.00;14.20;;;16.20;99.90;;;;;;5086681;28;20084;-77
2022/05/10 01:07:57;;;;;;;21.17;16.55;;;16.20;99.90;;;;;;5091398;28;20036;-75
2022/05/10 01:10:35;;;;;;;20.55;16.30;;;16.20;99.90;;;;;;5079683;28;20098;-78
2022/05/10 01:13:42;;;;;;;21.80;16.63;;;16.20;99.90;;;;;;5089663;28;20142;-77
2022/05/10 01:16:11;;;;;;;20.13;16.85;;;16.20;99.90;;;;;;5091303;28;20055;-77
2022/05/10 01:18:39;;;;;;;20.70;17.13;;;16.10;99.90;;;;;;5090007;28;20040;-77
2022/05/10 01:21:44;;;;;;;21.17;17.02;;;16.20;99.90;;;;;;5082703;28;20075;-77
2022/05/10 01:24:41;;;;;;;20.98;17.30;;;16.20;99.90;;;;;;5083484;28;20051;-75
2022/05/10 01:27:15;;;;;;;25.23;17.60;;;16.10;99.90;;;;;;5090629;28;20048;-76
2022/05/10 01:30:09;;;;;;;20.60;17.95;;;16.20;99.90;;;;;;5089744;28;20065;-77
2022/05/10 01:35:51;;;;;;;20.17;17.90;;;16.10;99.90;;;;;;5092094;28;20131;-77
2022/05/10 01:38:47;;;;;;;25.95;19.70;;;16.10;99.90;;;;;;5089884;28;20612;-78
2022/05/10 01:41:41;;;;;;;22.88;19.48;;;16.10;99.90;;;;;;5087890;28;22141;-75
2022/05/10 01:44:31;;;;;;;22.27;19.88;;;16.10;99.90;;;;;;5071524;28;20052;-76
2022/05/10 01:47:05;;;;;;;22.48;19.80;;;16.00;99.90;;;;;;5088427;28;20040;-77
2022/05/10 01:49:46;;;;;;;22.85;19.67;;;16.00;99.90;;;;;;5088022;28;20052;-76
2022/05/10 01:52:18;;;;;;;24.58;19.48;;;16.00;99.90;;;;;;5098080;28;20518;-77
2022/05/10 01:54:57;;;;;;;21.65;19.35;;;16.00;99.90;;;;;;5110027;28;20043;-79
2022/05/10 01:57:23;;;;;;;24.60;20.45;;;15.90;99.90;;;;;;5108801;28;20429;-76
2022/05/10 01:59:56;;;;;;;21.75;19.48;;;15.90;99.90;;;;;;5097937;28;20073;-76
2022/05/10 02:02:25;;;;;;;23.45;19.92;;;15.80;99.90;;;;;;5088475;28;20039;-75
2022/05/10 02:04:55;;;;;;;21.83;18.95;;;15.70;99.90;;;;;;5086158;28;20086;-77
2022/05/10 02:07:24;;;;;;;21.48;18.60;;;15.70;99.90;;;;;;5093206;28;20056;-79
2022/05/10 02:10:02;;;;;;;24.52;20.23;;;15.60;99.90;;;;;;5089327;28;20044;-79
2022/05/10 02:12:37;;;;;;;23.45;19.75;;;15.60;99.90;;;;;;5084185;28;20665;-79
2022/05/10 02:15:07;;;;;;;22.40;20.13;;;15.50;99.90;;;;;;5077313;28;20037;-75
2022/05/10 02:17:37;;;;;;;21.77;19.48;;;15.50;99.90;;;;;;5101337;28;20043;-77
2022/05/10 02:20:08;;;;;;;24.15;19.13;;;15.50;99.90;;;;;;5089077;28;20500;-76
2022/05/10 02:22:56;;;;;;;24.52;20.00;;;15.40;99.90;;;;;;5083016;28;20402;-76
2022/05/10 02:25:33;;;;;;;22.85;19.85;;;15.40;99.90;;;;;;5086193;28;20128;-76
2022/05/10 02:28:08;;;;;;;22.10;19.65;;;15.40;99.90;;;;;;5083064;28;20048;-79
2022/05/10 02:30:35;;;;;;;22.88;20.05;;;15.40;99.90;;;;;;5087718;28;20067;-74
2022/05/10 02:33:09;;;;;;;24.17;21.42;;;15.40;99.90;;;;;;5087975;28;20047;-77
2022/05/10 02:35:48;;;;;;;22.55;20.25;;;15.30;99.90;;;;;;5093300;28;20040;-77
2022/05/10 02:38:21;;;;;;;23.92;20.83;;;15.30;99.90;;;;;;5092721;28;20048;-74
2022/05/10 02:40:47;;;;;;;22.65;20.40;;;15.40;99.90;;;;;;5090481;28;20147;-76
2022/05/10 02:43:25;;;;;;;24.23;21.30;;;15.40;99.90;;;;;;5085727;28;20493;-80
2022/05/10 02:45:51;;;;;;;24.35;21.65;;;15.40;99.90;;;;;;5090052;28;20135;-76
2022/05/10 02:48:22;;;;;;;25.90;21.98;;;15.40;99.90;;;;;;5104751;28;20621;-76
2022/05/10 02:50:48;;;;;;;24.48;22.08;;;15.30;99.90;;;;;;5095351;28;20116;-76
2022/05/10 02:53:14;;;;;;;24.40;21.48;;;15.30;99.90;;;;;;5089631;28;20051;-76
2022/05/10 02:55:47;;;;;;;23.33;20.63;;;15.40;99.90;;;;;;5088990;28;20433;-78
2022/05/10 02:58:38;;;;;;;25.25;21.05;;;15.40;99.90;;;;;;5085984;28;20039;-76
2022/05/10 03:01:14;;;;;;;25.08;22.38;;;15.40;99.90;;;;;;5084420;28;20051;-76
2022/05/10 03:03:40;;;;;;;25.08;22.50;;;15.40;99.90;;;;;;5090581;28;20495;-77
2022/05/10 03:06:06;;;;;;;25.05;22.45;;;15.30;99.90;;;;;;5087304;28;20052;-75
2022/05/10 03:08:32;;;;;;;23.90;21.40;;;15.30;99.90;;;;;;5103371;28;20032;-77
2022/05/10 03:10:58;;;;;;;24.33;21.80;;;15.40;99.90;;;;;;5110314;28;20129;-75
2022/05/10 03:13:24;;;;;;;24.23;21.85;;;15.30;99.90;;;;;;5086529;28;20539;-76
2022/05/10 03:15:50;;;;;;;24.40;21.92;;;15.30;99.90;;;;;;5088394;28;20078;-77
2022/05/10 03:18:16;;;;;;;23.75;20.95;;;15.40;99.90;;;;;;5086096;28;20093;-75
2022/05/10 03:20:41;;;;;;;25.33;22.67;;;15.40;99.90;;;;;;5099694;28;20063;-76
2022/05/10 03:23:07;;;;;;;28.42;23.45;;;15.30;99.90;;;;;;5101447;28;20509;-78
2022/05/10 03:25:33;;;;;;;25.33;22.73;;;15.40;99.90;;;;;;5094495;28;20044;-78
2022/05/10 03:27:59;;;;;;;25.98;22.98;;;15.30;99.90;;;;;;5085828;28;20529;-76
2022/05/10 03:30:29;;;;;;;24.85;21.65;;;15.30;99.90;;;;;;5090012;28;20039;-76
2022/05/10 03:32:55;;;;;;;24.90;22.08;;;15.30;99.90;;;;;;5085527;28;20172;-77
2022/05/10 03:35:22;;;;;;;25.55;22.95;;;15.30;99.90;;;;;;5099818;28;20036;-77
2022/05/10 03:37:47;;;;;;;28.45;21.80;;;15.30;99.90;;;;;;5086938;28;20048;-76
2022/05/10 03:40:16;;;;;;;24.90;22.25;;;15.40;99.90;;;;;;5086198;28;20051;-75
2022/05/10 03:42:46;;;;;;;25.30;22.52;;;15.40;99.90;;;;;;5087464;28;20036;-76
2022/05/10 03:45:13;;;;;;;28.02;22.63;;;15.40;99.90;;;;;;5089728;28;20699;-75
2022/05/10 03:47:39;;;;;;;27.92;22.20;;;15.40;99.90;;;;;;5084369;28;20108;-77
2022/05/10 03:50:07;;;;;;;30.33;23.42;;;15.40;99.90;;;;;;5091387;28;20048;-76
2022/05/10 03:52:32;;;;;;;;;;;15.40;99.90;;;;;;5082496;28;20669;-76
2022/05/10 03:54:58;;;;;;;27.38;23.42;;;15.30;99.90;;;;;;5086541;28;19926;-77
2022/05/10 03:57:24;;;;;;;28.00;23.35;;;15.30;99.90;;;;;;5088029;28;20040;-75
2022/05/10 03:59:49;;;;;;;26.67;23.63;;;15.30;99.90;;;;;;5090222;28;20044;-77
2022/05/10 04:02:16;;;;;;;27.05;23.38;;;15.30;99.90;;;;;;5097740;28;20062;-78
2022/05/10 04:04:42;;;;;;;25.30;22.75;;;15.30;99.90;;;;;;5086278;28;20070;-77
2022/05/10 04:07:09;;;;;;;25.40;22.80;;;15.30;99.90;;;;;;5087246;28;20479;-76
2022/05/10 04:09:35;;;;;;;26.38;23.55;;;15.30;99.90;;;;;;5099264;28;20043;-76
2022/05/10 04:12:01;;;;;;;25.65;23.15;;;15.30;99.90;;;;;;5090651;28;20391;-76
2022/05/10 04:14:28;;;;;;;26.95;23.17;;;15.30;99.90;;;;;;5092385;28;20036;-78
2022/05/10 04:16:54;;;;;;;26.48;23.25;;;15.20;99.90;;;;;;5088767;28;20546;-77
2022/05/10 04:19:19;;;;;;;31.33;23.85;;;15.20;99.90;;;;;;5086689;28;20027;-78
2022/05/10 04:21:45;;;;;;;25.90;23.10;;;15.20;99.90;;;;;;5097863;28;20202;-77
2022/05/10 04:24:11;;;;;;;24.58;21.98;;;15.20;99.90;;;;;;5091064;28;20043;-76
2022/05/10 04:26:37;;;;;;;26.25;23.25;;;15.10;99.90;;;;;;5097715;28;20040;-77
2022/05/10 04:29:03;;;;;;;25.17;22.40;;;15.10;99.90;;;;;;5098516;28;20082;-78
2022/05/10 04:31:29;;;;;;;26.52;23.73;;;15.10;99.90;;;;;;5093265;28;20046;-78
2022/05/10 04:33:55;;;;;;;27.05;24.15;;;15.10;99.90;;;;;;5088399;28;20044;-76
2022/05/10 04:36:23;;;;;;;27.45;23.83;;;15.10;99.90;;;;;;5085913;28;20035;-75
2022/05/10 04:38:49;;;;;;;28.23;23.60;;;15.10;99.90;;;;;;5086468;28;20044;-75
2022/05/10 04:41:25;;;;;;;26.60;23.88;;;15.10;99.90;;;;;;5092800;28;20036;-75
2022/05/10 04:43:51;;;;;;;27.65;23.60;;;15.20;99.90;;;;;;5089596;28;20040;-75
2022/05/10 04:46:17;;;;;;;29.80;25.75;;;15.20;99.90;;;;;;5092220;28;20051;-75
2022/05/10 04:48:43;;;;;;;31.50;28.13;;;15.30;99.90;;;;;;5095908;28;20040;-79
2022/05/10 04:51:10;;;;;;;36.20;31.58;;;15.30;99.90;;;;;;5094848;28;20056;-76
2022/05/10 04:53:36;;;;;;;45.40;37.22;;;15.30;99.90;;;;;;5101320;28;20054;-74
2022/05/10 04:56:03;;;;;;;48.95;37.75;;;15.30;99.90;;;;;;5102287;28;20048;-74
2022/05/10 04:58:29;;;;;;;47.17;37.60;;;15.30;99.90;;;;;;5088691;28;20411;-75
2022/05/10 05:00:58;;;;;;;44.83;34.80;;;15.40;99.90;;;;;;5091059;28;20043;-75
2022/05/10 05:03:24;;;;;;;42.15;34.22;;;15.40;99.90;;;;;;5105468;28;20062;-75
2022/05/10 05:05:50;;;;;;;38.25;31.42;;;15.40;99.90;;;;;;5094741;28;20044;-75
2022/05/10 05:08:15;;;;;;;32.45;28.63;;;15.50;99.90;;;;;;5089702;28;20522;-75
2022/05/10 05:10:41;;;;;;;35.33;28.33;;;15.50;99.90;;;;;;5089031;28;20032;-75
2022/05/10 05:13:06;;;;;;;32.03;27.75;;;15.60;99.90;;;;;;5095558;28;20039;-75
2022/05/10 05:15:32;;;;;;;34.50;28.85;;;15.60;99.90;;;;;;5088662;28;20607;-74
2022/05/10 05:17:58;;;;;;;34.15;29.55;;;15.60;99.90;;;;;;5094575;28;20051;-75
2022/05/10 05:20:23;;;;;;;34.10;28.58;;;15.70;99.90;;;;;;5092523;28;20475;-74
2022/05/10 05:22:49;;;;;;;34.55;27.58;;;15.70;99.90;;;;;;5097798;28;20471;-74
2022/05/10 05:25:15;;;;;;;36.03;27.48;;;15.70;99.90;;;;;;5097786;28;20055;-74
2022/05/10 05:27:40;;;;;;;37.33;28.80;;;15.80;99.90;;;;;;5090672;28;20048;-73
2022/05/10 05:30:06;;;;;;;51.60;34.45;;;15.80;99.90;;;;;;5091304;28;20040;-73
2022/05/10 05:32:34;;;;;;;49.83;35.83;;;15.90;99.90;;;;;;5101139;28;20148;-73
2022/05/10 05:35:00;;;;;;;48.92;34.90;;;15.90;99.90;;;;;;5109772;28;20036;-73
2022/05/10 05:37:35;;;;;;;51.60;34.97;;;16.00;99.90;;;;;;5093399;28;20227;-73
2022/05/10 05:40:13;;;;;;;46.90;31.88;;;16.00;99.90;;;;;;5082859;28;20111;-73
2022/05/10 05:42:38;;;;;;;46.95;32.50;;;16.00;99.90;;;;;;5089010;28;20055;-74
2022/05/10 05:45:06;;;;;;;44.30;29.67;;;16.10;99.90;;;;;;5094656;28;20414;-74
2022/05/10 05:47:32;;;;;;;41.03;28.23;;;16.10;99.90;;;;;;5093599;28;20078;-74
2022/05/10 05:49:58;;;;;;;39.70;29.42;;;16.10;99.90;;;;;;5087640;28;20541;-75
2022/05/10 05:52:24;;;;;;;35.75;27.95;;;16.10;99.90;;;;;;5093901;28;20055;-73
2022/05/10 05:54:50;;;;;;;30.17;24.88;;;16.20;99.90;;;;;;5087673;28;20044;-79
2022/05/10 05:57:16;;;;;;;31.00;25.50;;;16.20;99.90;;;;;;5093996;28;20392;-74
2022/05/10 05:59:42;;;;;;;30.40;24.17;;;16.20;99.90;;;;;;5091122;28;20055;-75
2022/05/10 06:02:18;;;;;;;28.77;24.80;;;16.30;99.90;;;;;;5083576;28;20101;-75
2022/05/10 06:04:44;;;;;;;26.92;24.13;;;16.30;99.90;;;;;;5088172;28;20402;-75
2022/05/10 06:07:10;;;;;;;27.90;24.40;;;16.30;99.90;;;;;;5090259;28;20040;-74
2022/05/10 06:09:39;;;;;;;27.92;24.67;;;16.40;99.90;;;;;;5095996;28;20059;-74
2022/05/10 06:12:08;;;;;;;27.45;24.13;;;16.40;99.90;;;;;;5096172;28;20035;-77
2022/05/10 06:14:34;;;;;;;27.92;23.42;;;16.40;99.90;;;;;;5088898;28;20047;-75
2022/05/10 06:17:01;;;;;;;28.08;23.50;;;16.50;99.90;;;;;;5083666;28;20049;-75
2022/05/10 06:19:28;;;;;;;25.43;22.67;;;16.60;99.90;;;;;;5085799;28;20471;-75
2022/05/10 06:21:55;;;;;;;25.77;23.05;;;16.60;99.90;;;;;;5097586;28;20044;-75
2022/05/10 06:24:22;;;;;;;29.60;23.30;;;16.60;99.90;;;;;;5089163;28;20076;-74
2022/05/10 06:26:48;;;;;;;28.13;23.65;;;16.70;99.90;;;;;;5086446;28;20063;-75
2022/05/10 06:29:13;;;;;;;30.60;22.90;;;16.70;99.90;;;;;;5091587;28;20089;-74
2022/05/10 06:31:44;;;;;;;25.92;23.23;;;16.80;99.90;;;;;;5087076;28;20101;-75
2022/05/10 06:34:10;;;;;;;25.35;22.65;;;16.80;99.90;;;;;;5089031;28;20051;-75
2022/05/10 06:36:37;;;;;;;25.88;23.40;;;16.90;99.90;;;;;;5087619;28;20086;-75
2022/05/10 06:39:03;;;;;;;27.33;22.85;;;16.90;99.90;;;;;;5089082;28;20545;-75
2022/05/10 06:41:31;;;;;;;26.88;23.08;;;17.00;99.90;;;;;;5087496;28;20032;-75
2022/05/10 06:43:57;;;;;;;25.10;22.52;;;17.10;99.90;;;;;;5081637;28;20046;-74
2022/05/10 06:46:23;;;;;;;28.92;23.70;;;17.10;99.90;;;;;;5098513;28;20445;-75
2022/05/10 06:48:49;;;;;;;26.08;23.25;;;17.20;99.90;;;;;;5084781;28;20094;-75
2022/05/10 06:51:17;;;;;;;26.45;23.17;;;17.30;99.90;;;;;;5084705;28;20052;-75
2022/05/10 06:53:43;;;;;;;31.35;23.65;;;17.40;99.90;;;;;;5084136;28;20052;-75
2022/05/10 06:56:09;;;;;;;31.93;22.83;;;17.60;99.90;;;;;;5087463;28;20395;-75
2022/05/10 06:58:36;;;;;;;26.20;22.38;;;17.70;99.90;;;;;;5089414;28;20129;-75
2022/05/10 07:01:02;;;;;;;26.77;21.15;;;17.80;99.90;;;;;;5086523;28;20117;-75
2022/05/10 07:03:31;;;;;;;24.67;21.35;;;17.90;99.90;;;;;;5088003;28;20031;-75
2022/05/10 07:05:59;;;;;;;25.80;21.08;;;18.00;99.90;;;;;;5094189;28;20766;-75
2022/05/10 07:08:24;;;;;;;36.17;21.10;;;18.10;99.90;;;;;;5085397;28;20365;-75
2022/05/10 07:10:50;;;;;;;30.45;20.15;;;18.20;99.90;;;;;;5083875;28;20054;-75
2022/05/10 07:13:22;;;;;;;25.08;20.05;;;18.30;99.90;;;;;;5079646;28;20051;-75
2022/05/10 07:15:47;;;;;;;25.38;19.63;;;18.30;99.90;;;;;;5085705;28;20036;-75
2022/05/10 07:18:13;;;;;;;22.42;18.90;;;18.40;99.90;;;;;;5086484;28;20078;-75
2022/05/10 07:20:39;;;;;;;22.15;19.15;;;18.50;99.90;;;;;;5086351;28;20502;-75
2022/05/10 07:23:05;;;;;;;21.33;18.42;;;18.50;99.90;;;;;;5089450;28;20052;-75
2022/05/10 07:25:32;;;;;;;23.02;18.73;;;18.60;99.90;;;;;;5085797;28;20483;-75
2022/05/10 07:27:58;;;;;;;21.65;18.33;;;18.60;99.90;;;;;;5080497;28;20056;-75
2022/05/10 07:30:26;;;;;;;24.30;18.58;;;18.60;99.90;;;;;;5090166;28;20047;-75
2022/05/10 07:32:51;;;;;;;23.20;18.63;;;18.70;99.90;;;;;;5085031;28;20446;-75
2022/05/10 07:36:23;;;;;;;25.05;18.95;;;18.70;99.90;;;;;;5088301;28;20071;-74
2022/05/10 07:38:05;;;;;;;23.10;18.58;;;18.80;99.90;;;;;;5098240;28;20104;-74
2022/05/10 07:40:30;;;;;;;19.48;17.20;;;19.00;99.90;;;;;;5098459;28;20445;-76
2022/05/10 07:42:56;;;;;;;21.20;16.83;;;19.10;99.90;;;;;;5105486;28;20051;-75
2022/05/10 07:45:21;;;;;;;25.25;18.35;;;19.20;99.90;;;;;;5098536;28;20040;-78
2022/05/10 07:47:47;;;;;;;21.75;17.45;;;19.20;99.90;;;;;;5087060;28;20044;-77
2022/05/10 07:50:13;;;;;;;21.40;17.02;;;19.30;99.90;;;;;;5088250;28;20177;-77
2022/05/10 07:52:40;;;;;;;22.27;16.60;;;19.40;99.90;;;;;;5088682;28;20055;-78
2022/05/10 07:55:07;;;;;;;19.80;16.70;;;19.40;99.90;;;;;;5094931;28;20460;-78
2022/05/10 07:57:32;;;;;;;19.98;16.45;;;19.50;99.90;;;;;;5095932;28;20123;-77
2022/05/10 07:59:58;;;;;;;20.08;15.88;;;19.70;99.90;;;;;;5092555;28;20122;-73
2022/05/10 08:02:24;;;;;;;21.15;15.02;;;19.80;99.90;;;;;;5105982;28;20050;-74
2022/05/10 08:04:50;;;;;;;24.42;14.32;;;19.90;99.90;;;;;;5105562;28;20060;-74
2022/05/10 08:07:15;;;;;;;20.08;13.63;;;20.00;99.90;;;;;;5094659;28;20082;-73
2022/05/10 08:09:41;;;;;;;18.50;13.13;;;20.00;99.90;;;;;;5093306;28;20047;-74
2022/05/10 08:12:07;;;;;;;17.58;11.73;;;20.10;99.90;;;;;;5105192;28;20048;-73
2022/05/10 08:14:32;;;;;;;16.02;11.68;;;20.10;99.90;;;;;;5108915;28;20039;-73
2022/05/10 08:16:58;;;;;;;15.70;11.50;;;20.20;99.90;;;;;;5108900;28;20375;-73
2022/05/10 08:19:24;;;;;;;16.58;10.48;;;20.30;99.90;;;;;;5087256;28;20044;-70
2022/05/10 08:21:52;;;;;;;23.30;10.90;;;20.40;99.90;;;;;;5099982;28;20086;-74
2022/05/10 08:24:18;;;;;;;14.52;9.55;;;20.50;99.90;;;;;;5089136;28;20480;-74
2022/05/10 08:26:44;;;;;;;19.35;9.57;;;20.50;99.50;;;;;;5106660;28;20094;-74
2022/05/10 08:29:09;;;;;;;15.57;9.40;;;20.60;99.20;;;;;;5108306;28;20047;-75
2022/05/10 08:31:36;;;;;;;16.45;8.63;;;20.70;98.20;;;;;;5089701;28;20040;-74
2022/05/10 08:34:02;;;;;;;;;;;20.80;98.70;;;;;;5091401;28;20042;-76
2022/05/10 08:36:28;;;;;;;18.47;8.80;;;20.90;95.10;;;;;;5101303;28;20035;-75
2022/05/10 08:38:57;;;;;;;15.35;8.82;;;21.00;98.80;;;;;;5096207;28;20032;-78
2022/05/10 08:41:32;;;;;;;13.10;8.60;;;21.10;97.40;;;;;;5106977;28;20047;-73
2022/05/10 08:44:20;;;;;;;18.42;8.80;;;21.20;97.30;;;;;;5100243;28;20087;-72
2022/05/10 08:46:51;;;;;;;12.90;8.82;;;21.30;96.80;;;;;;5103850;28;20919;-72
2022/05/10 08:49:45;;;;;;;16.50;8.60;;;21.30;96.70;;;;;;5108135;28;20795;-72
2022/05/10 08:52:14;;;;;;;12.00;7.95;;;21.40;95.90;;;;;;5098931;28;20086;-72
2022/05/10 08:54:41;;;;;;;12.30;7.60;;;21.50;95.80;;;;;;5101313;28;20048;-73
2022/05/10 08:57:24;;;;;;;15.13;7.53;;;21.60;95.20;;;;;;5094209;28;20044;-68
2022/05/10 09:00:09;;;;;;;15.05;8.27;;;21.60;94.70;;;;;;5098222;28;20048;-71
2022/05/10 09:02:47;;;;;;;12.18;8.13;;;21.70;95.20;;;;;;5087645;28;20043;-71
2022/05/10 09:05:20;;;;;;;11.30;7.38;;;21.70;93.70;;;;;;5087484;28;20058;-71
2022/05/10 09:08:14;;;;;;;10.75;7.30;;;21.70;95.40;;;;;;5103362;28;20440;-71
2022/05/10 09:10:59;;;;;;;16.50;8.98;;;21.80;95.70;;;;;;5091039;28;20070;-72
2022/05/10 09:13:25;;;;;;;13.23;8.73;;;21.80;93.90;;;;;;5088801;28;20051;-72
2022/05/10 09:15:58;;;;;;;13.75;9.10;;;21.80;94.80;;;;;;5093984;28;20386;-71
2022/05/10 09:18:28;;;;;;;12.25;8.05;;;21.80;93.90;;;;;;5101722;28;20479;-71
2022/05/10 09:21:02;;;;;;;13.80;8.23;;;21.90;93.50;;;;;;5102729;28;20119;-74
2022/05/10 09:23:58;;;;;;;16.10;8.38;;;22.00;94.60;;;;;;5092368;28;20438;-72
2022/05/10 09:26:31;;;;;;;21.85;8.35;;;22.20;94.80;;;;;;5091305;28;20568;-72
2022/05/10 09:29:21;;;;;;;12.23;8.43;;;22.20;95.60;;;;;;5092252;28;20036;-71
2022/05/10 09:34:47;;;;;;;16.88;8.65;;;22.40;93.30;;;;;;5105682;28;20074;-71
2022/05/10 09:37:17;;;;;;;13.95;9.25;;;22.40;94.00;;;;;;5105687;28;20440;-71
2022/05/10 09:39:58;;;;;;;12.80;9.20;;;22.50;92.50;;;;;;5090280;27;20042;-70
2022/05/10 09:42:26;;;;;;;15.73;9.10;;;22.60;92.90;;;;;;5091707;28;20107;-70
2022/05/10 09:45:10;;;;;;;15.75;8.73;;;22.70;95.30;;;;;;5092388;28;20125;-71
2022/05/10 09:47:36;;;;;;;13.05;8.68;;;22.80;94.60;;;;;;5098543;28;20143;-70
2022/05/10 09:50:42;;;;;;;13.35;8.40;;;22.90;91.80;;;;;;5095068;28;20109;-70
2022/05/10 09:53:22;;;;;;;13.30;8.80;;;22.90;87.00;;;;;;5089146;28;20051;-70
2022/05/10 09:56:00;;;;;;;13.48;8.43;;;22.90;90.40;;;;;;5102748;28;20044;-71
2022/05/10 09:58:54;;;;;;;11.95;8.23;;;22.80;89.00;;;;;;5088750;28;20048;-71
2022/05/10 10:01:38;;;;;;;14.40;8.27;;;22.70;91.30;;;;;;5077077;28;20426;-71
2022/05/10 10:04:27;;;;;;;13.13;7.90;;;22.70;91.40;;;;;;5088213;28;20052;-74
2022/05/10 10:07:13;;;;;;;9.63;7.13;;;22.60;92.60;;;;;;5106101;28;20071;-73
2022/05/10 10:09:55;;;;;;;12.85;7.70;;;22.60;93.90;;;;;;5091248;28;20114;-71
2022/05/10 10:12:43;;;;;;;13.02;7.80;;;22.60;93.20;;;;;;5088789;28;20044;-74
2022/05/10 10:15:35;;;;;;;11.65;7.35;;;22.60;92.40;;;;;;5098031;28;20036;-72
2022/05/10 10:18:08;;;;;;;12.35;7.65;;;22.60;92.50;;;;;;5074664;28;20123;-72
2022/05/10 10:20:43;;;;;;;12.25;7.80;;;22.60;92.80;;;;;;5087831;28;20066;-73
2022/05/10 10:23:23;;;;;;;13.32;7.47;;;22.70;93.60;;;;;;5086506;28;20071;-72
2022/05/10 10:25:50;;;;;;;11.25;7.40;;;22.70;94.70;;;;;;5090120;28;20043;-72
2022/05/10 10:28:27;;;;;;;10.82;7.15;;;22.80;93.10;;;;;;5110788;28;20506;-72
2022/05/10 10:31:03;;;;;;;11.63;6.50;;;22.90;92.10;;;;;;5098675;27;20055;-73
2022/05/10 10:33:57;;;;;;;12.70;6.77;;;23.00;91.80;;;;;;5096578;28;20124;-72
2022/05/10 10:36:31;;;;;;;12.63;6.88;;;23.00;91.30;;;;;;5086068;28;20127;-73
2022/05/10 10:39:13;;;;;;;10.98;6.43;;;23.10;91.00;;;;;;5092929;28;20097;-73
2022/05/10 10:42:08;;;;;;;17.48;7.00;;;23.20;91.80;;;;;;5102571;28;20040;-73
2022/05/10 10:44:37;;;;;;;8.18;5.85;;;23.30;86.70;;;;;;5097150;28;20039;-72
2022/05/10 10:47:22;;;;;;;11.40;5.95;;;23.30;85.90;;;;;;5097637;28;20051;-72
2022/05/10 10:49:52;;;;;;;11.23;6.45;;;23.30;81.50;;;;;;5096670;28;20048;-70
2022/05/10 10:52:18;;;;;;;13.23;6.10;;;23.30;84.40;;;;;;5102529;28;20418;-71
2022/05/10 10:54:45;;;;;;;10.32;6.07;;;23.30;83.10;;;;;;5107775;28;20047;-70
2022/05/10 10:57:29;;;;;;;11.30;5.43;;;23.30;84.70;;;;;;5103413;28;20036;-70
2022/05/10 11:00:17;;;;;;;16.23;6.50;;;23.30;80.80;;;;;;5100020;28;20155;-71
2022/05/10 11:03:06;;;;;;;21.13;6.63;;;23.40;78.00;;;;;;5069163;28;20396;-72
2022/05/10 11:05:40;;;;;;;10.25;5.35;;;23.50;73.40;;;;;;5104515;28;20525;-72
2022/05/10 11:08:42;;;;;;;10.80;6.18;;;23.50;74.10;;;;;;5101205;28;20056;-72
2022/05/10 11:11:26;;;;;;;14.45;6.10;;;23.50;74.50;;;;;;5090899;28;20404;-71
2022/05/10 11:14:14;;;;;;;9.65;5.95;;;23.50;79.90;;;;;;5084751;28;20076;-71
2022/05/10 11:17:09;;;;;;;16.23;6.43;;;23.60;77.00;;;;;;5071679;28;20052;-71
2022/05/10 11:20:03;;;;;;;10.23;6.97;;;23.60;81.40;;;;;;5072088;28;20043;-71
2022/05/10 11:22:44;;;;;;;9.85;6.40;;;23.70;79.00;;;;;;5092364;28;20119;-71
2022/05/10 11:25:19;;;;;;;10.63;6.50;;;23.70;78.90;;;;;;5108651;28;20044;-71
2022/05/10 11:27:45;;;;;;;12.23;6.30;;;23.80;80.30;;;;;;5103084;28;20043;-71
2022/05/10 11:30:19;;;;;;;22.88;6.70;;;23.80;79.80;;;;;;5095446;28;20100;-71
2022/05/10 11:33:06;;;;;;;9.38;6.10;;;23.90;77.50;;;;;;5099234;28;20043;-71
2022/05/10 11:35:55;;;;;;;10.18;5.80;;;24.00;76.50;;;;;;5088515;28;20058;-73
2022/05/10 11:38:41;;;;;;;11.35;5.60;;;24.00;72.00;;;;;;5086176;28;20135;-71
2022/05/10 11:41:35;;;;;;;10.95;6.13;;;24.00;75.00;;;;;;5086043;28;20056;-73
2022/05/10 11:44:22;;;;;;;9.25;5.80;;;24.10;68.00;;;;;;5100876;28;20043;-72
2022/05/10 11:47:24;;;;;;;11.57;5.47;;;24.00;67.50;;;;;;5096010;28;20051;-72
2022/05/10 11:50:10;;;;;;;17.55;6.68;;;24.00;68.40;;;;;;5075560;28;20499;-72
2022/05/10 11:52:49;;;;;;;22.73;7.25;;;24.00;65.60;;;;;;5088914;28;20044;-73
2022/05/10 11:55:41;;;;;;;17.00;7.75;;;24.00;64.90;;;;;;5100188;28;20050;-73
2022/05/10 11:58:08;;;;;;;13.23;6.70;;;24.00;66.30;;;;;;5091712;28;20047;-74
2022/05/10 12:00:34;;;;;;;11.57;6.05;;;24.00;65.00;;;;;;5107477;28;20058;-75
2022/05/10 12:03:03;;;;;;;12.65;6.95;;;24.00;67.60;;;;;;5109552;28;20040;-74
2022/05/10 12:05:34;;;;;;;14.25;6.45;;;24.00;66.60;;;;;;5091796;28;20093;-74
2022/05/10 12:08:04;;;;;;;15.57;6.38;;;24.00;65.10;;;;;;5101774;28;20048;-74
2022/05/10 12:10:32;;;;;;;16.90;7.07;;;24.00;65.70;;;;;;5108790;28;20051;-74
2022/05/10 12:13:00;;;;;;;8.45;6.40;;;24.00;64.80;;;;;;5106283;28;20376;-74
2022/05/10 12:21:42;;;;;;;9.82;6.43;;;24.20;69.20;;;;;;5065042;28;20070;-75
2022/05/10 12:24:09;;;;;;;9.40;6.38;;;24.20;66.40;;;;;;5097415;28;20155;-77
2022/05/10 12:26:43;;;;;;;13.02;6.28;;;24.30;68.40;;;;;;5092046;28;20055;-77
2022/05/10 12:29:31;;;;;;;14.10;5.93;;;24.40;66.00;;;;;;5091435;28;20048;-77
2022/05/10 12:32:01;;;;;;;9.20;5.38;;;24.50;63.00;;;;;;5093649;28;20051;-77
2022/05/10 12:34:48;;;;;;;12.27;5.60;;;24.60;60.50;;;;;;5095881;28;20391;-78
2022/05/10 12:37:39;;;;;;;9.48;5.10;;;24.60;58.30;;;;;;5083681;28;20055;-78
2022/05/10 12:40:11;;;;;;;9.57;5.20;;;24.60;59.20;;;;;;5080125;28;20495;-78
2022/05/10 12:42:58;;;;;;;9.10;4.75;;;24.60;58.70;;;;;;5078448;28;20561;-76
2022/05/10 12:45:35;;;;;;;12.40;5.70;;;24.70;56.90;;;;;;5081193;28;20048;-77
2022/05/10 12:48:09;;;;;;;9.55;5.38;;;24.60;57.10;;;;;;5079286;28;20040;-78
2022/05/10 12:50:40;;;;;;;15.38;5.60;;;24.60;55.70;;;;;;5087946;28;20139;-76
2022/05/10 12:53:28;;;;;;;10.13;5.25;;;24.40;55.30;;;;;;5087703;28;20063;-77
2022/05/10 12:56:22;;;;;;;12.77;5.88;;;24.50;55.90;;;;;;5100942;28;20062;-77
2022/05/10 12:58:55;;;;;;;15.73;5.85;;;24.40;56.40;;;;;;5103785;28;20437;-76
2022/05/10 13:01:24;;;;;;;11.32;6.35;;;24.40;57.10;;;;;;5109977;28;20036;-75
2022/05/10 13:03:56;;;;;;;14.38;6.03;;;24.40;58.10;;;;;;5108041;27;20517;-76
2022/05/10 13:06:40;;;;;;;12.10;5.85;;;24.40;57.80;;;;;;5099918;28;20661;-76
2022/05/10 13:09:36;;;;;;;11.23;6.40;;;24.50;57.40;;;;;;5095938;28;20108;-77
2022/05/10 13:12:07;;;;;;;17.38;6.95;;;24.50;57.80;;;;;;5075701;28;20050;-76